createdAt,value
2023-01-23T00:04:40.355Z,94709.00
2023-01-23T00:09:43.486Z,94696.56
2023-01-23T00:14:45.033Z,94703.94
2023-01-23T00:19:46.593Z,94708.91
2023-01-23T00:24:49.527Z,94698.00
2023-01-23T00:29:52.372Z,94698.69
2023-01-23T00:34:53.985Z,94691.47
2023-01-23T00:39:56.862Z,94698.19
2023-01-23T00:44:58.348Z,94698.88
2023-01-23T00:49:59.894Z,94703.25
2023-01-23T00:55:02.868Z,94704.88
2023-01-23T01:00:05.296Z,94716.94
2023-01-23T01:05:07.281Z,94717.34
2023-01-23T01:10:11.458Z,94721.56
2023-01-23T01:15:13.875Z,94723.59
2023-01-23T01:20:15.696Z,94728.22
2023-01-23T01:25:19.111Z,94726.81
2023-01-23T01:30:21.258Z,94734.00
2023-01-23T01:35:24.304Z,94729.94
2023-01-23T01:40:34.071Z,94730.81
2023-01-23T01:46:06.430Z,94728.03
2023-01-23T01:51:13.150Z,94735.47
2023-01-23T01:56:18.440Z,94732.09
2023-01-23T02:01:20.616Z,94736.97
2023-01-23T02:06:22.613Z,94730.53
2023-01-23T02:11:25.462Z,94731.38
2023-01-23T02:16:29.935Z,94732.34
2023-01-23T02:21:33.239Z,94726.22
2023-01-23T02:26:39.833Z,94731.78
2023-01-23T02:31:41.565Z,94728.50
2023-01-23T02:36:47.364Z,94738.03
2023-01-23T02:41:52.843Z,94731.53
2023-01-23T02:46:54.540Z,94740.59
2023-01-23T02:51:56.897Z,94728.69
2023-01-23T02:56:59.780Z,94720.09
2023-01-23T03:02:01.348Z,94722.34
2023-01-23T03:07:03.063Z,94712.31
2023-01-23T03:12:06.345Z,94719.97
2023-01-23T03:17:07.964Z,94723.50
2023-01-23T03:22:09.499Z,94706.81
2023-01-23T03:27:12.586Z,94717.59
2023-01-23T03:32:15.176Z,94712.44
2023-01-23T03:37:16.798Z,94711.31
2023-01-23T03:42:19.882Z,94717.13
2023-01-23T03:47:21.475Z,94728.97
2023-01-23T03:52:23.484Z,94734.56
2023-01-23T03:57:26.457Z,94740.13
2023-01-23T04:02:28.097Z,94749.53
2023-01-23T04:07:29.628Z,94749.50
2023-01-23T04:12:32.623Z,94751.56
2023-01-23T04:17:34.265Z,94754.06
2023-01-23T04:22:35.831Z,94749.09
2023-01-23T04:27:38.696Z,94749.81
2023-01-23T04:32:40.224Z,94751.47
2023-01-23T04:37:41.731Z,94757.75
2023-01-23T04:42:44.597Z,94762.44
2023-01-23T04:47:46.305Z,94756.84
2023-01-23T04:52:47.906Z,94749.81
2023-01-23T04:57:50.972Z,94750.28
2023-01-23T05:02:52.598Z,94748.34
2023-01-23T05:07:54.136Z,94739.00
2023-01-23T05:12:57.087Z,94742.22
2023-01-23T05:17:58.615Z,94747.00
2023-01-23T05:23:00.171Z,94748.66
2023-01-23T05:28:03.237Z,94754.66
2023-01-23T05:33:04.816Z,94764.25
2023-01-23T05:38:06.776Z,94777.16
2023-01-23T05:43:13.774Z,94776.69
2023-01-23T05:48:15.254Z,94790.06
2023-01-23T05:53:16.851Z,94795.03
2023-01-23T05:58:19.696Z,94796.09
2023-01-23T06:03:21.208Z,94796.78
2023-01-23T06:08:22.902Z,94800.03
2023-01-23T06:13:25.895Z,94806.75
2023-01-23T06:18:27.394Z,94816.34
2023-01-23T06:23:29.238Z,94824.56
2023-01-23T06:28:32.063Z,94821.84
2023-01-23T06:33:33.608Z,94834.59
2023-01-23T06:38:35.119Z,94832.75
2023-01-23T06:43:37.971Z,94842.13
2023-01-23T06:48:42.528Z,94842.00
2023-01-23T06:53:44.118Z,94840.59
2023-01-23T06:58:47.083Z,94839.84
2023-01-23T07:03:48.675Z,94838.19
2023-01-23T07:08:50.178Z,94846.44
2023-01-23T07:13:53.515Z,94847.34
2023-01-23T07:18:56.132Z,94831.13
2023-01-23T07:23:57.722Z,94844.25
2023-01-23T07:29:00.612Z,94844.59
2023-01-23T07:34:02.310Z,94837.53
2023-01-23T07:39:03.962Z,94847.69
2023-01-23T07:44:06.880Z,94837.09
2023-01-23T07:49:08.384Z,94842.88
2023-01-23T07:54:10.063Z,94840.84
2023-01-23T07:59:13.182Z,94837.13
2023-01-23T08:04:15.049Z,94847.09
2023-01-23T08:09:16.610Z,94846.28
2023-01-23T08:14:19.690Z,94846.94
2023-01-23T08:19:21.325Z,94841.94
2023-01-23T08:24:22.906Z,94852.50
2023-01-23T08:29:25.822Z,94857.59
2023-01-23T08:34:27.372Z,94859.41
2023-01-23T08:39:29.024Z,94853.00
2023-01-23T08:44:31.878Z,94854.25
2023-01-23T08:49:33.832Z,94867.31
2023-01-23T08:54:35.338Z,94854.69
2023-01-23T08:59:38.279Z,94843.59
2023-01-23T09:04:39.993Z,94856.75
2023-01-23T09:09:41.556Z,94859.25
2023-01-23T09:14:44.369Z,94874.72
2023-01-23T09:19:45.915Z,94850.56
2023-01-23T09:24:47.400Z,94850.19
2023-01-23T09:29:50.736Z,94860.84
2023-01-23T09:34:52.285Z,94854.25
2023-01-23T09:39:53.807Z,94858.38
2023-01-23T09:45:02.825Z,94867.91
2023-01-23T09:50:08.652Z,94863.50
2023-01-23T09:55:15.648Z,94861.50
2023-01-23T10:00:23.999Z,94853.28
2023-01-23T10:05:33.460Z,94850.41
2023-01-23T10:10:54.048Z,94835.56
2023-01-23T10:16:23.010Z,94835.91
2023-01-23T10:21:31.996Z,94841.03
2023-01-23T10:26:38.505Z,94827.25
2023-01-23T10:31:46.236Z,94824.97
2023-01-23T10:37:02.297Z,94825.00
2023-01-23T10:42:08.704Z,94811.13
2023-01-23T10:47:19.764Z,94806.06
2023-01-23T10:52:34.659Z,94811.25
2023-01-23T10:57:45.134Z,94809.94
2023-01-23T11:02:48.066Z,94814.75
2023-01-23T11:07:54.793Z,94817.97
2023-01-23T11:12:56.380Z,94796.44
2023-01-23T11:18:01.495Z,94796.72
2023-01-23T11:23:05.842Z,94797.16
2023-01-23T11:28:20.852Z,94792.00
2023-01-23T11:33:36.626Z,94791.19
2023-01-23T11:38:52.510Z,94769.59
2023-01-23T11:43:54.971Z,94740.78
2023-01-23T11:49:25.121Z,94746.28
2023-01-23T11:54:46.043Z,94748.25
2023-01-23T12:00:02.803Z,94732.44
2023-01-23T12:05:41.023Z,94731.75
2023-01-23T12:10:56.097Z,94720.31
2023-01-23T12:16:14.622Z,94729.31
2023-01-23T12:21:20.699Z,94720.47
2023-01-23T12:26:25.551Z,94723.13
2023-01-23T12:31:43.466Z,94712.53
2023-01-23T12:37:12.131Z,94711.41
2023-01-23T12:42:21.231Z,94706.47
2023-01-23T12:47:25.421Z,94711.03
2023-01-23T12:52:35.810Z,94727.31
2023-01-23T12:57:52.268Z,94703.19
2023-01-23T13:03:14.985Z,94716.19
2023-01-23T13:08:25.543Z,94703.81
2023-01-23T13:13:27.915Z,94703.50
2023-01-23T13:18:29.548Z,94693.56
2023-01-23T13:23:33.304Z,94694.53
2023-01-23T13:28:44.851Z,94692.25
2023-01-23T13:33:51.531Z,94690.41
2023-01-23T13:39:23.451Z,94688.00
2023-01-23T13:44:35.811Z,94697.13
2023-01-23T14:21:57.719Z,94694.97
2023-01-23T14:27:09.550Z,94684.91
2023-01-23T14:32:22.279Z,94688.13
2023-01-23T14:37:25.512Z,94703.50
2023-01-23T14:42:31.156Z,94691.56
2023-01-23T14:47:37.935Z,94690.59
2023-01-23T14:52:40.987Z,94697.69
2023-01-23T14:57:44.196Z,94698.31
2023-01-23T15:03:11.297Z,94716.03
2023-01-23T15:08:20.299Z,94704.28
2023-01-23T15:13:25.921Z,94732.16
2023-01-23T15:18:29.592Z,94726.38
2023-01-23T15:23:33.026Z,94728.25
2023-01-23T15:28:40.845Z,94740.59
2023-01-23T15:33:42.392Z,94728.59
2023-01-23T15:38:46.494Z,94732.41
2023-01-23T15:43:49.967Z,94730.31
2023-01-23T15:48:51.459Z,94725.13
2023-01-23T15:53:52.935Z,94729.09
2023-01-23T15:58:56.086Z,94730.44
2023-01-23T16:03:57.660Z,94721.00
2023-01-23T16:09:05.170Z,94725.38
2023-01-23T16:14:15.262Z,94731.19
2023-01-23T16:19:18.012Z,94731.88
2023-01-23T16:24:21.462Z,94734.69
2023-01-23T16:29:29.096Z,94743.28
2023-01-23T16:34:30.679Z,94741.22
2023-01-23T16:39:33.224Z,94744.34
2023-01-23T16:44:36.072Z,94745.66
2023-01-23T16:49:50.959Z,94749.94
2023-01-23T16:54:54.409Z,94755.75
2023-01-23T16:59:58.268Z,94751.72
2023-01-23T17:04:59.777Z,94747.03
2023-01-23T17:10:02.404Z,94744.63
2023-01-23T17:15:07.455Z,94767.09
2023-01-23T17:20:13.017Z,94750.44
2023-01-23T17:25:16.117Z,94751.50
2023-01-23T17:30:21.341Z,94768.50
2023-01-23T17:35:24.994Z,94758.84
2023-01-23T17:40:26.588Z,94778.78
2023-01-23T17:45:29.548Z,94780.53
2023-01-23T17:50:31.124Z,94782.00
2023-01-23T17:55:32.741Z,94785.94
2023-01-23T18:00:38.171Z,94778.56
2023-01-23T18:05:39.795Z,94793.00
2023-01-23T18:10:44.274Z,94793.09
2023-01-23T18:16:02.017Z,94792.03
2023-01-23T18:21:05.621Z,94787.16
2023-01-23T18:26:23.650Z,94801.63
2023-01-23T18:31:36.383Z,94798.28
2023-01-23T18:36:49.297Z,94796.50
2023-01-23T18:42:01.216Z,94788.84
2023-01-23T18:47:10.766Z,94805.13
2023-01-23T18:52:16.587Z,94806.19
2023-01-23T18:57:40.161Z,94809.69
2023-01-23T19:02:47.936Z,94814.88
2023-01-23T19:07:49.761Z,94807.69
2023-01-23T19:13:07.836Z,94811.03
2023-01-23T19:18:38.624Z,94812.06
2023-01-23T19:23:46.113Z,94821.41
2023-01-23T19:28:48.277Z,94806.84
2023-01-23T19:33:51.607Z,94828.56
2023-01-23T19:38:53.666Z,94829.19
2023-01-23T19:43:57.052Z,94815.03
2023-01-23T19:49:01.632Z,94846.69
2023-01-23T19:54:04.544Z,94848.16
2023-01-23T19:59:06.747Z,94844.25
2023-01-23T20:04:13.898Z,94848.97
2023-01-23T20:09:15.919Z,94848.16
2023-01-23T20:14:17.525Z,94836.53
2023-01-23T20:19:20.511Z,94862.84
2023-01-23T20:24:22.095Z,94851.06
2023-01-23T20:29:23.624Z,94854.72
2023-01-23T20:34:26.575Z,94865.97
2023-01-23T20:39:28.081Z,94862.53
2023-01-23T20:44:29.660Z,94873.16
2023-01-23T20:49:32.589Z,94884.28
2023-01-23T20:54:34.112Z,94878.19
2023-01-23T20:59:35.674Z,94878.53
2023-01-23T21:04:41.959Z,94883.81
2023-01-23T21:09:43.933Z,94874.38
2023-01-23T21:14:45.520Z,94878.94
2023-01-23T21:19:48.420Z,94899.56
2023-01-23T21:24:49.968Z,94895.34
2023-01-23T21:29:51.597Z,94905.47
2023-01-23T21:34:54.565Z,94893.75
2023-01-23T21:39:56.116Z,94896.88
2023-01-23T21:44:57.650Z,94904.69
2023-01-23T21:50:00.613Z,94913.53
2023-01-23T21:55:02.147Z,94906.66
2023-01-23T22:00:04.706Z,94909.50
2023-01-23T22:05:09.192Z,94913.50
2023-01-23T22:10:10.997Z,94917.44
2023-01-23T22:15:12.597Z,94922.75
2023-01-23T22:20:15.963Z,94931.50
2023-01-23T22:25:17.765Z,94927.19
2023-01-23T22:30:19.461Z,94928.97
2023-01-23T22:35:22.856Z,94924.38
2023-01-23T22:40:24.554Z,94923.97
2023-01-23T22:45:26.172Z,94934.78
2023-01-23T22:50:29.109Z,94931.72
2023-01-23T22:55:30.725Z,94926.50
2023-01-23T23:00:32.229Z,94921.72
2023-01-23T23:05:35.163Z,94918.09
2023-01-23T23:10:36.689Z,94916.19
2023-01-23T23:15:38.176Z,94933.38
2023-01-23T23:20:41.030Z,94915.56
2023-01-23T23:25:42.654Z,94917.03
2023-01-23T23:30:44.230Z,94925.69
2023-01-23T23:35:47.346Z,94918.16
2023-01-23T23:40:54.619Z,94917.78
2023-01-23T23:45:57.655Z,94913.16
2023-01-23T23:51:01.524Z,94907.09
2023-01-23T23:56:03.841Z,94919.31
